createdAt,value
2023-03-13T00:00:38.225Z,145.60
2023-03-13T00:01:38.165Z,136.30
2023-03-13T00:02:38.164Z,105.10
2023-03-13T00:03:38.142Z,180.60
2023-03-13T00:04:38.208Z,249.30
2023-03-13T00:05:38.167Z,147.50
2023-03-13T00:06:38.121Z,136.70
2023-03-13T00:07:38.129Z,140.80
2023-03-13T00:08:38.081Z,136.60
2023-03-13T00:09:38.065Z,139.60
2023-03-13T00:10:38.132Z,139.70
2023-03-13T00:11:38.054Z,133.50
2023-03-13T00:12:38.158Z,134.20
2023-03-13T00:13:38.046Z,135.60
2023-03-13T00:14:38.032Z,137.70
2023-03-13T00:15:38.040Z,139.20
2023-03-13T00:16:38.075Z,130.80
2023-03-13T00:17:37.994Z,144.00
2023-03-13T00:18:37.976Z,134.90
2023-03-13T00:19:37.975Z,139.80
2023-03-13T00:20:37.994Z,135.60
2023-03-13T00:21:37.982Z,131.50
2023-03-13T00:22:37.934Z,240.00
2023-03-13T00:23:37.932Z,207.40
2023-03-13T00:24:37.915Z,137.80
2023-03-13T00:25:37.931Z,133.30
2023-03-13T00:26:37.868Z,136.50
2023-03-13T00:27:37.866Z,135.60
2023-03-13T00:28:37.859Z,133.60
2023-03-13T00:29:37.857Z,136.90
2023-03-13T00:30:37.933Z,140.10
2023-03-13T00:31:37.840Z,148.50
2023-03-13T00:32:37.880Z,138.10
2023-03-13T00:33:37.802Z,106.40
2023-03-13T00:34:37.787Z,366.90
2023-03-13T00:35:37.872Z,264.50
2023-03-13T00:36:37.763Z,128.40
2023-03-13T00:37:37.762Z,151.10
2023-03-13T00:38:37.741Z,157.20
2023-03-13T00:39:37.734Z,196.40
2023-03-13T00:40:37.756Z,138.10
2023-03-13T00:41:37.734Z,146.40
2023-03-13T00:42:37.727Z,142.30
2023-03-13T00:43:37.720Z,144.00
2023-03-13T00:44:37.684Z,147.40
2023-03-13T00:45:37.828Z,148.40
2023-03-13T00:46:37.699Z,145.10
2023-03-13T00:47:37.685Z,149.40
2023-03-13T00:48:37.634Z,153.40
2023-03-13T00:49:37.631Z,426.10
2023-03-13T00:50:37.655Z,152.90
2023-03-13T00:51:37.615Z,165.80
2023-03-13T00:52:37.591Z,156.30
2023-03-13T00:53:37.590Z,168.00
2023-03-13T00:54:37.562Z,164.40
2023-03-13T00:55:37.593Z,170.40
2023-03-13T00:56:37.525Z,166.90
2023-03-13T00:57:37.520Z,181.40
2023-03-13T00:58:37.571Z,175.60
2023-03-13T00:59:37.512Z,179.50
2023-03-13T01:00:37.544Z,161.90
2023-03-13T01:01:37.502Z,177.70
2023-03-13T01:02:37.618Z,170.90
2023-03-13T01:03:37.492Z,166.10
2023-03-13T01:04:37.446Z,172.00
2023-03-13T01:05:37.483Z,176.60
2023-03-13T01:06:37.444Z,157.10
2023-03-13T01:07:37.409Z,153.20
2023-03-13T01:08:37.411Z,151.50
2023-03-13T01:09:37.394Z,152.20
2023-03-13T01:10:37.435Z,124.40
2023-03-13T01:11:37.391Z,933.80
2023-03-13T01:12:37.382Z,222.40
2023-03-13T01:13:37.363Z,201.00
2023-03-13T01:14:37.350Z,156.40
2023-03-13T01:15:37.414Z,155.90
2023-03-13T01:16:37.308Z,168.40
2023-03-13T01:17:37.358Z,166.60
2023-03-13T01:18:37.299Z,161.90
2023-03-13T01:19:37.289Z,171.90
2023-03-13T01:20:37.306Z,160.60
2023-03-13T01:21:37.256Z,163.10
2023-03-13T01:22:37.259Z,179.30
2023-03-13T01:27:50.738Z,196.00
2023-03-13T01:28:50.727Z,334.10
2023-03-13T01:29:50.690Z,207.80
2023-03-13T01:30:50.729Z,133.80
2023-03-13T01:31:50.702Z,167.20
2023-03-13T01:32:50.739Z,173.70
2023-03-13T01:33:50.643Z,188.80
2023-03-13T01:34:50.673Z,282.50
2023-03-13T01:35:50.678Z,315.30
2023-03-13T01:36:50.664Z,216.10
2023-03-13T01:37:50.607Z,180.70
2023-03-13T01:38:50.602Z,225.00
2023-03-13T01:39:50.595Z,183.20
2023-03-13T01:40:50.559Z,179.10
2023-03-13T01:41:50.620Z,174.50
2023-03-13T01:42:50.625Z,168.10
2023-03-13T01:43:50.543Z,198.70
2023-03-13T01:44:50.536Z,174.10
2023-03-13T01:45:50.508Z,173.30
2023-03-13T01:46:50.530Z,188.70
2023-03-13T01:47:50.539Z,210.50
2023-03-13T01:48:50.491Z,683.60
2023-03-13T01:49:50.484Z,276.50
2023-03-13T01:50:50.468Z,180.10
2023-03-13T01:51:50.456Z,177.10
2023-03-13T01:52:50.481Z,210.00
2023-03-13T01:53:50.433Z,201.30
2023-03-13T01:54:50.412Z,231.70
2023-03-13T01:55:50.411Z,191.40
2023-03-13T01:56:50.407Z,244.70
2023-03-13T01:57:50.426Z,182.90
2023-03-13T01:58:50.388Z,188.50
2023-03-13T01:59:50.347Z,411.40
2023-03-13T02:00:50.353Z,212.40
2023-03-13T02:01:50.356Z,183.00
2023-03-13T02:02:50.399Z,187.60
2023-03-13T02:03:50.307Z,195.80
2023-03-13T02:04:50.297Z,201.70
2023-03-13T02:05:50.296Z,186.40
2023-03-13T02:06:50.271Z,192.10
2023-03-13T02:07:50.285Z,204.30
2023-03-13T02:08:50.255Z,191.10
2023-03-13T02:09:50.229Z,188.10
2023-03-13T02:10:50.243Z,239.00
2023-03-13T02:11:50.217Z,186.70
2023-03-13T02:12:50.240Z,193.30
2023-03-13T02:13:50.180Z,193.20
2023-03-13T02:14:50.185Z,195.20
2023-03-13T02:15:50.269Z,189.60
2023-03-13T02:16:50.149Z,197.90
2023-03-13T02:17:50.167Z,199.60
2023-03-13T02:18:50.125Z,191.90
2023-03-13T02:19:50.140Z,214.10
2023-03-13T02:20:50.109Z,195.20
2023-03-13T02:21:50.090Z,192.00
2023-03-13T02:22:50.123Z,196.10
2023-03-13T02:23:50.067Z,199.30
2023-03-13T02:24:50.056Z,202.40
2023-03-13T02:25:50.103Z,220.50
2023-03-13T02:26:50.058Z,199.60
2023-03-13T02:27:50.073Z,199.90
2023-03-13T02:28:50.016Z,191.90
2023-03-13T02:29:50.016Z,200.80
2023-03-13T02:30:49.993Z,202.50
2023-03-13T02:31:50.181Z,191.80
2023-03-13T02:32:50.061Z,195.60
2023-03-13T02:33:49.974Z,197.50
2023-03-13T02:34:49.979Z,191.10
2023-03-13T02:35:49.972Z,200.60
2023-03-13T02:36:49.925Z,206.90
2023-03-13T02:37:49.948Z,223.90
2023-03-13T02:38:49.918Z,207.10
2023-03-13T02:39:49.882Z,216.10
2023-03-13T02:40:49.867Z,207.70
2023-03-13T02:41:49.861Z,206.20
2023-03-13T02:42:49.903Z,223.80
2023-03-13T02:43:49.842Z,213.30
2023-03-13T02:44:49.850Z,221.80
2023-03-13T02:45:49.812Z,215.30
2023-03-13T02:46:49.988Z,207.20
2023-03-13T02:47:49.840Z,224.50
2023-03-13T02:48:49.770Z,207.60
2023-03-13T02:49:49.763Z,213.70
2023-03-13T02:50:49.756Z,208.30
2023-03-13T02:51:49.737Z,207.90
2023-03-13T02:52:49.883Z,196.10
2023-03-13T02:53:49.730Z,209.80
2023-03-13T02:54:49.710Z,203.00
2023-03-13T02:55:49.701Z,212.50
2023-03-13T02:56:49.708Z,204.80
2023-03-13T02:57:49.719Z,205.10
2023-03-13T02:58:50.652Z,202.60
2023-03-13T02:59:49.667Z,200.00
2023-03-13T03:00:49.738Z,200.90
2023-03-13T03:01:49.632Z,209.10
2023-03-13T03:02:49.663Z,204.70
2023-03-13T03:03:49.739Z,204.80
2023-03-13T03:04:49.606Z,212.70
2023-03-13T03:05:49.598Z,221.90
2023-03-13T03:06:49.577Z,212.20
2023-03-13T03:07:49.588Z,214.30
2023-03-13T03:08:49.599Z,205.70
2023-03-13T03:09:49.559Z,203.40
2023-03-13T03:10:49.537Z,212.10
2023-03-13T03:11:49.508Z,204.20
2023-03-13T03:12:49.520Z,215.40
2023-03-13T03:13:49.555Z,203.30
2023-03-13T03:14:49.496Z,202.20
2023-03-13T03:15:49.463Z,199.80
2023-03-13T03:16:49.510Z,198.80
2023-03-13T03:17:49.487Z,190.10
2023-03-13T03:18:49.473Z,189.70
2023-03-13T03:19:49.422Z,174.90
2023-03-13T03:20:49.434Z,176.90
2023-03-13T03:21:49.399Z,189.10
2023-03-13T03:22:49.384Z,189.20
2023-03-13T03:23:49.411Z,193.70
2023-03-13T03:24:49.356Z,191.10
2023-03-13T03:25:49.351Z,195.10
2023-03-13T03:26:49.344Z,195.40
2023-03-13T03:27:49.341Z,200.60
2023-03-13T03:28:49.348Z,211.00
2023-03-13T03:29:49.302Z,65.10
2023-03-13T03:30:49.291Z,151.30
2023-03-13T03:31:49.320Z,109.50
2023-03-13T03:32:49.334Z,222.90
2023-03-13T03:33:49.293Z,192.30
2023-03-13T03:34:49.256Z,194.00
2023-03-13T03:35:49.295Z,195.10
2023-03-13T03:36:49.248Z,186.90
2023-03-13T03:37:49.220Z,200.80
2023-03-13T03:38:49.262Z,198.00
2023-03-13T03:39:49.204Z,208.30
2023-03-13T03:40:49.167Z,195.40
2023-03-13T03:41:49.165Z,200.80
2023-03-13T03:42:49.149Z,199.20
2023-03-13T03:43:49.174Z,197.50
2023-03-13T03:44:49.137Z,200.30
2023-03-13T03:45:49.146Z,192.60
2023-03-13T03:46:49.183Z,212.40
2023-03-13T03:47:49.088Z,194.80
2023-03-13T03:48:49.107Z,196.60
2023-03-13T03:49:49.086Z,299.40
2023-03-13T03:50:49.058Z,247.20
2023-03-13T03:51:49.066Z,603.10
2023-03-13T03:52:49.024Z,294.30
2023-03-13T03:53:49.054Z,253.80
2023-03-13T03:54:49.011Z,178.20
2023-03-13T03:55:49.007Z,298.40
2023-03-13T03:56:48.995Z,271.40
2023-03-13T03:57:48.979Z,256.10
2023-03-13T03:58:48.970Z,273.80
2023-03-13T03:59:49.016Z,265.40
2023-03-13T04:00:48.960Z,244.50
2023-03-13T04:01:48.987Z,489.00
2023-03-13T04:02:48.955Z,248.20
2023-03-13T04:03:49.004Z,281.70
2023-03-13T04:04:48.937Z,269.90
2023-03-13T04:05:48.895Z,256.30
2023-03-13T04:06:48.867Z,260.70
2023-03-13T04:07:48.866Z,251.70
2023-03-13T04:08:48.843Z,265.50
2023-03-13T04:09:48.870Z,270.30
2023-03-13T04:10:48.824Z,267.60
2023-03-13T04:11:48.845Z,265.60
2023-03-13T04:12:48.796Z,256.40
2023-03-13T04:13:48.799Z,256.60
2023-03-13T04:14:48.837Z,528.60
2023-03-13T04:15:48.806Z,195.10
2023-03-13T04:16:48.855Z,246.20
2023-03-13T04:17:48.753Z,222.10
2023-03-13T04:18:48.732Z,255.60
2023-03-13T04:19:48.777Z,598.90
2023-03-13T04:20:48.717Z,251.90
2023-03-13T04:21:48.712Z,244.80
2023-03-13T04:22:48.697Z,249.20
2023-03-13T04:23:48.710Z,999.90
2023-03-13T04:24:48.699Z,198.30
2023-03-13T04:25:48.663Z,259.00
2023-03-13T04:26:48.647Z,238.80
2023-03-13T04:27:48.637Z,235.10
2023-03-13T04:28:48.624Z,236.00
2023-03-13T04:29:48.651Z,229.50
2023-03-13T04:30:48.660Z,228.30
2023-03-13T04:31:48.594Z,229.10
2023-03-13T04:32:48.609Z,257.90
2023-03-13T04:33:48.579Z,121.10
2023-03-13T04:34:48.587Z,193.10
2023-03-13T04:35:48.599Z,233.60
2023-03-13T04:36:48.536Z,214.50
2023-03-13T04:37:48.525Z,225.00
2023-03-13T04:38:48.513Z,212.20
2023-03-13T04:39:48.528Z,220.50
2023-03-13T04:40:48.503Z,221.90
2023-03-13T04:41:48.482Z,233.00
2023-03-13T04:42:48.474Z,245.40
2023-03-13T04:43:48.457Z,284.60
2023-03-13T04:44:48.486Z,152.80
2023-03-13T04:45:48.465Z,220.10
2023-03-13T04:46:48.426Z,238.90
2023-03-13T04:47:48.465Z,254.10
2023-03-13T04:48:48.404Z,233.20
2023-03-13T04:49:48.434Z,999.90
2023-03-13T04:50:48.389Z,215.70
2023-03-13T04:51:48.368Z,224.70
2023-03-13T04:52:49.645Z,216.80
2023-03-13T04:53:48.362Z,223.30
2023-03-13T04:54:48.395Z,233.90
2023-03-13T04:55:48.317Z,198.70
2023-03-13T04:56:48.296Z,227.80
2023-03-13T04:57:48.305Z,233.70
2023-03-13T04:58:48.283Z,272.00
2023-03-13T04:59:48.282Z,209.70
2023-03-13T05:00:48.280Z,218.30
2023-03-13T05:01:48.258Z,203.60
2023-03-13T05:02:48.248Z,211.50
2023-03-13T05:03:48.357Z,199.20
2023-03-13T05:04:49.691Z,196.90
2023-03-13T05:05:48.379Z,207.20
2023-03-13T05:06:48.196Z,203.70
2023-03-13T05:07:48.191Z,999.90
2023-03-13T05:08:48.165Z,217.40
2023-03-13T05:09:48.154Z,207.20
2023-03-13T05:10:48.196Z,197.50
2023-03-13T05:11:48.144Z,999.90
2023-03-13T05:12:48.116Z,201.40
2023-03-13T05:13:48.248Z,206.60
2023-03-13T05:14:48.127Z,193.10
2023-03-13T05:15:48.187Z,184.90
2023-03-13T05:16:48.084Z,174.00
2023-03-13T05:17:48.112Z,175.70
2023-03-13T05:18:48.057Z,999.90
2023-03-13T05:19:48.051Z,202.50
2023-03-13T05:20:48.061Z,195.20
2023-03-13T05:21:48.019Z,184.40
2023-03-13T05:22:48.009Z,178.50
2023-03-13T05:23:48.004Z,198.50
2023-03-13T05:24:47.992Z,179.10
2023-03-13T05:25:48.015Z,999.90
2023-03-13T05:26:47.978Z,206.00
2023-03-13T05:27:47.969Z,181.80
2023-03-13T05:28:47.941Z,276.00
2023-03-13T05:29:48.058Z,164.00
2023-03-13T05:30:48.019Z,178.60
2023-03-13T05:31:47.905Z,150.20
2023-03-13T05:32:47.928Z,229.10
2023-03-13T05:33:47.883Z,151.20
2023-03-13T05:34:47.863Z,151.10
2023-03-13T05:35:47.917Z,156.90
2023-03-13T05:36:47.856Z,138.00
2023-03-13T05:37:47.853Z,195.00
2023-03-13T05:38:47.819Z,137.90
2023-03-13T05:39:47.831Z,131.80
2023-03-13T05:40:47.847Z,180.80
2023-03-13T05:41:47.801Z,135.90
2023-03-13T05:42:47.780Z,187.00
2023-03-13T05:43:47.778Z,141.10
2023-03-13T05:44:47.755Z,275.50
2023-03-13T05:45:47.790Z,999.90
2023-03-13T05:46:47.798Z,211.30
2023-03-13T05:47:47.753Z,165.00
2023-03-13T05:48:47.715Z,136.80
2023-03-13T05:49:47.712Z,999.90
2023-03-13T05:50:47.723Z,721.00
2023-03-13T05:51:47.688Z,171.60
2023-03-13T05:52:47.670Z,384.40
2023-03-13T05:53:47.668Z,167.50
2023-03-13T05:54:47.654Z,573.80
2023-03-13T05:55:47.683Z,406.80
2023-03-13T05:56:47.631Z,368.60
2023-03-13T05:57:47.638Z,645.30
2023-03-13T05:58:47.603Z,634.70
2023-03-13T05:59:47.612Z,356.20
2023-03-13T06:00:47.632Z,612.60
2023-03-13T06:01:47.567Z,635.40
2023-03-13T06:02:47.568Z,656.20
2023-03-13T06:03:47.698Z,999.90
2023-03-13T06:04:47.619Z,608.60
2023-03-13T06:05:47.572Z,999.90
2023-03-13T06:06:47.512Z,999.90
2023-03-13T06:07:47.516Z,999.90
2023-03-13T06:08:47.493Z,999.90
2023-03-13T06:09:47.501Z,954.00
2023-03-13T06:10:47.518Z,999.90
2023-03-13T06:11:47.474Z,999.90
2023-03-13T06:12:47.443Z,999.90
2023-03-13T06:13:47.439Z,999.90
2023-03-13T06:14:47.454Z,999.90
2023-03-13T06:15:47.532Z,999.90
2023-03-13T06:16:47.400Z,999.90
2023-03-13T06:17:47.387Z,999.90
2023-03-13T06:18:47.381Z,999.90
2023-03-13T06:19:47.385Z,999.90
2023-03-13T06:20:47.371Z,999.90
2023-03-13T06:21:47.342Z,999.90
2023-03-13T06:22:47.330Z,999.90
2023-03-13T06:23:47.324Z,999.90
2023-03-13T06:24:47.307Z,999.90
2023-03-13T06:25:47.329Z,999.90
2023-03-13T06:26:49.564Z,999.90
2023-03-13T06:27:47.275Z,999.90
2023-03-13T06:28:47.268Z,999.90
2023-03-13T06:29:47.259Z,999.90
2023-03-13T06:30:47.259Z,999.90
2023-03-13T06:31:47.444Z,999.90
2023-03-13T06:32:47.435Z,999.90
2023-03-13T06:33:49.072Z,999.90
2023-03-13T06:34:47.196Z,999.90
2023-03-13T06:35:56.257Z,999.90
2023-03-13T06:36:48.210Z,999.90
2023-03-13T06:37:47.178Z,999.90
2023-03-13T06:38:47.125Z,999.90
2023-03-13T06:39:47.147Z,999.90
2023-03-13T06:40:48.023Z,999.90
2023-03-13T06:41:47.120Z,999.90
2023-03-13T06:42:47.098Z,128.40
2023-03-13T06:43:47.105Z,999.90
2023-03-13T06:44:47.116Z,999.90
2023-03-13T06:45:47.102Z,999.90
2023-03-13T06:46:47.128Z,999.90
2023-03-13T06:47:47.074Z,999.90
2023-03-13T06:48:47.036Z,999.90
2023-03-13T06:49:47.054Z,999.90
2023-03-13T06:50:47.054Z,999.90
2023-03-13T06:51:47.009Z,999.90
2023-03-13T06:52:46.992Z,999.90
2023-03-13T06:53:46.997Z,999.90
2023-03-13T06:54:46.972Z,999.90
2023-03-13T06:55:46.995Z,999.90
2023-03-13T06:56:46.963Z,999.90
2023-03-13T06:57:46.938Z,999.90
2023-03-13T06:58:46.930Z,999.90
2023-03-13T06:59:46.930Z,999.90
2023-03-13T07:00:46.946Z,999.90
2023-03-13T07:01:46.910Z,999.90
2023-03-13T07:02:46.889Z,999.90
2023-03-13T07:03:46.913Z,999.90
2023-03-13T07:04:46.865Z,999.90
2023-03-13T07:05:46.873Z,999.90
2023-03-13T07:06:46.840Z,999.90
2023-03-13T07:07:46.844Z,999.90
2023-03-13T07:08:46.833Z,999.90
2023-03-13T07:09:46.797Z,999.90
2023-03-13T07:10:46.821Z,999.90
2023-03-13T07:11:46.777Z,999.90
2023-03-13T07:12:46.790Z,999.90
2023-03-13T07:13:46.768Z,999.90
2023-03-13T07:14:46.766Z,999.90
2023-03-13T07:15:46.757Z,999.90
2023-03-13T07:16:46.853Z,999.90
2023-03-13T07:17:46.728Z,999.90
2023-03-13T07:18:46.712Z,999.90
2023-03-13T07:19:46.678Z,999.90
2023-03-13T07:20:46.707Z,999.90
2023-03-13T07:21:46.678Z,999.90
2023-03-13T07:22:46.666Z,999.90
2023-03-13T07:23:46.649Z,999.90
2023-03-13T07:24:46.734Z,999.90
2023-03-13T07:25:46.678Z,999.90
2023-03-13T07:27:03.878Z,999.90
2023-03-13T07:27:47.623Z,999.90
2023-03-13T07:28:46.602Z,999.90
2023-03-13T07:29:46.603Z,999.90
2023-03-13T07:30:46.626Z,999.90
2023-03-13T07:31:46.619Z,999.90
2023-03-13T07:32:46.606Z,999.90
2023-03-13T07:33:46.603Z,999.90
2023-03-13T07:34:46.586Z,999.90
2023-03-13T07:35:46.555Z,999.90
2023-03-13T07:36:46.539Z,999.90
2023-03-13T07:37:46.500Z,999.90
2023-03-13T07:38:46.504Z,999.90
2023-03-13T07:39:46.484Z,999.90
2023-03-13T07:40:46.488Z,999.90
2023-03-13T07:41:46.443Z,999.90
2023-03-13T07:42:46.456Z,999.90
2023-03-13T07:43:46.448Z,999.90
2023-03-13T07:44:46.414Z,999.90
2023-03-13T07:45:46.625Z,999.90
2023-03-13T07:46:46.438Z,981.50
2023-03-13T07:47:46.439Z,869.90
2023-03-13T07:48:46.414Z,718.00
2023-03-13T07:49:46.388Z,602.00
2023-03-13T07:50:46.378Z,776.40
2023-03-13T07:51:46.334Z,928.30
2023-03-13T07:52:46.432Z,999.90
2023-03-13T07:53:46.351Z,999.90
2023-03-13T07:54:46.319Z,999.90
2023-03-13T07:55:46.343Z,999.90
2023-03-13T07:56:46.277Z,999.90
2023-03-13T07:57:46.265Z,999.90
2023-03-13T07:58:46.262Z,999.90
2023-03-13T07:59:46.261Z,999.90
2023-03-13T08:00:46.294Z,999.90
2023-03-13T08:01:46.226Z,999.90
2023-03-13T08:02:46.289Z,999.90
2023-03-13T08:03:46.228Z,999.90
2023-03-13T08:04:46.254Z,999.90
2023-03-13T08:05:46.229Z,999.90
2023-03-13T08:06:46.200Z,999.90
2023-03-13T08:07:46.163Z,999.90
2023-03-13T08:08:46.124Z,999.90
2023-03-13T08:09:46.188Z,999.90
2023-03-13T08:10:46.109Z,999.90
2023-03-13T08:11:46.209Z,999.90
2023-03-13T08:12:46.107Z,999.90
2023-03-13T08:13:46.066Z,999.90
2023-03-13T08:14:46.087Z,999.90
2023-03-13T08:15:46.098Z,999.90
2023-03-13T08:16:46.307Z,999.90
2023-03-13T08:17:46.023Z,999.90
2023-03-13T08:18:46.076Z,910.90
2023-03-13T08:19:46.021Z,689.00
2023-03-13T08:20:46.022Z,854.90
2023-03-13T08:21:46.022Z,755.20
2023-03-13T08:22:46.011Z,380.40
2023-03-13T08:23:45.976Z,541.10
2023-03-13T08:24:45.963Z,393.70
2023-03-13T08:25:45.938Z,462.20
2023-03-13T08:26:45.976Z,916.90
2023-03-13T08:27:45.932Z,422.70
2023-03-13T08:28:45.901Z,491.30
2023-03-13T08:29:45.886Z,516.80
2023-03-13T08:30:45.914Z,385.20
2023-03-13T08:31:45.944Z,585.30
2023-03-13T08:32:45.952Z,368.40
2023-03-13T08:33:45.854Z,83.40
2023-03-13T08:34:45.861Z,242.20
2023-03-13T08:35:45.884Z,63.90
2023-03-13T08:36:45.851Z,433.30
2023-03-13T08:37:45.821Z,259.50
2023-03-13T08:38:46.416Z,337.40
2023-03-13T08:39:45.777Z,554.50
2023-03-13T08:40:45.766Z,623.60
2023-03-13T08:41:45.776Z,284.90
2023-03-13T08:42:45.749Z,496.50
2023-03-13T08:43:45.736Z,621.00
2023-03-13T08:44:45.718Z,349.60
2023-03-13T08:45:45.783Z,128.40
2023-03-13T08:46:45.824Z,208.20
2023-03-13T08:47:45.678Z,165.80
2023-03-13T08:48:45.687Z,580.30
2023-03-13T08:49:45.688Z,322.30
2023-03-13T08:50:45.692Z,58.80
2023-03-13T08:51:45.669Z,55.60
2023-03-13T08:52:45.669Z,229.20
2023-03-13T08:53:45.648Z,59.10
2023-03-13T08:54:45.648Z,56.50
2023-03-13T08:55:45.606Z,88.00
2023-03-13T08:56:45.642Z,85.20
2023-03-13T08:57:45.606Z,97.80
2023-03-13T08:58:45.584Z,200.00
2023-03-13T08:59:45.572Z,64.50
2023-03-13T09:00:45.554Z,72.10
2023-03-13T09:01:45.605Z,75.70
2023-03-13T09:02:45.575Z,68.30
2023-03-13T09:03:45.646Z,86.20
2023-03-13T09:04:45.518Z,148.00
2023-03-13T09:05:55.745Z,87.10
2023-03-13T09:06:46.516Z,61.10
2023-03-13T09:07:45.482Z,67.40
2023-03-13T09:08:45.483Z,71.70
2023-03-13T09:09:45.463Z,55.20
2023-03-13T09:10:45.447Z,45.80
2023-03-13T09:11:45.469Z,45.70
2023-03-13T09:12:45.415Z,48.20
2023-03-13T09:13:45.401Z,51.50
2023-03-13T09:14:45.413Z,58.70
2023-03-13T09:15:45.443Z,71.90
2023-03-13T09:16:45.373Z,83.80
2023-03-13T09:17:45.400Z,85.80
2023-03-13T09:18:45.392Z,89.60
2023-03-13T09:19:57.843Z,94.70
2023-03-13T09:20:48.034Z,104.30
2023-03-13T09:21:45.320Z,91.20
2023-03-13T09:22:45.344Z,92.10
2023-03-13T09:23:45.303Z,96.90
2023-03-13T09:24:45.312Z,88.50
2023-03-13T09:25:45.286Z,89.40
2023-03-13T09:27:00.159Z,111.10
2023-03-13T09:27:46.312Z,92.30
2023-03-13T09:28:45.255Z,91.80
2023-03-13T09:29:45.241Z,178.10
2023-03-13T09:30:45.284Z,105.30
2023-03-13T09:31:45.227Z,109.00
2023-03-13T09:32:45.331Z,108.00
2023-03-13T09:33:45.210Z,101.30
2023-03-13T09:34:45.189Z,108.60
2023-03-13T09:35:45.177Z,284.80
2023-03-13T09:36:45.149Z,105.30
2023-03-13T09:37:45.168Z,108.90
2023-03-13T09:38:45.178Z,117.10
2023-03-13T09:39:45.118Z,106.80
2023-03-13T09:40:56.494Z,110.70
2023-03-13T09:41:46.091Z,104.90
2023-03-13T09:42:45.070Z,105.80
2023-03-13T09:43:45.080Z,114.50
2023-03-13T09:44:45.045Z,116.40
2023-03-13T09:45:45.053Z,113.30
2023-03-13T09:46:45.140Z,114.70
2023-03-13T09:47:45.048Z,122.70
2023-03-13T09:48:45.076Z,76.70
2023-03-13T09:49:45.011Z,69.20
2023-03-13T09:50:45.027Z,66.70
2023-03-13T09:51:44.961Z,65.70
2023-03-13T09:52:44.976Z,53.90
2023-03-13T09:53:44.956Z,62.30
2023-03-13T09:54:44.991Z,57.10
2023-03-13T09:55:44.933Z,77.90
2023-03-13T09:56:44.949Z,72.80
2023-03-13T09:57:44.945Z,83.50
2023-03-13T09:58:44.887Z,81.80
2023-03-13T09:59:44.912Z,113.40
2023-03-13T10:00:44.889Z,111.80
2023-03-13T10:01:44.981Z,197.50
2023-03-13T10:02:44.843Z,355.00
2023-03-13T10:03:44.874Z,140.70
2023-03-13T10:04:44.888Z,79.30
2023-03-13T10:05:44.819Z,314.10
2023-03-13T10:06:44.819Z,285.70
2023-03-13T10:07:44.819Z,184.50
2023-03-13T10:08:44.784Z,200.50
2023-03-13T10:09:44.951Z,999.90
2023-03-13T10:10:44.772Z,999.90
2023-03-13T10:11:44.784Z,156.30
2023-03-13T10:12:44.730Z,134.40
2023-03-13T10:13:44.724Z,81.60
2023-03-13T10:14:44.745Z,116.60
2023-03-13T10:15:44.754Z,322.70
2023-03-13T10:16:44.697Z,92.50
2023-03-13T10:17:44.709Z,236.10
2023-03-13T10:18:44.680Z,89.80
2023-03-13T10:19:44.703Z,185.60
2023-03-13T10:20:44.648Z,277.20
2023-03-13T10:21:44.627Z,70.00
2023-03-13T10:22:44.630Z,202.90
2023-03-13T10:23:44.630Z,71.30
2023-03-13T10:24:44.633Z,66.80
2023-03-13T10:25:44.592Z,66.90
2023-03-13T10:26:44.579Z,72.80
2023-03-13T10:27:44.584Z,155.30
2023-03-13T10:28:44.575Z,71.60
2023-03-13T10:29:44.592Z,112.10
2023-03-13T10:30:44.527Z,68.80
2023-03-13T10:31:44.641Z,73.80
2023-03-13T10:32:44.553Z,83.70
2023-03-13T10:33:44.522Z,78.90
2023-03-13T10:34:44.567Z,63.70
2023-03-13T10:35:44.537Z,134.70
2023-03-13T10:36:44.477Z,60.40
2023-03-13T10:37:44.465Z,61.30
2023-03-13T10:38:44.444Z,57.80
2023-03-13T10:39:44.532Z,55.70
2023-03-13T10:40:44.396Z,59.60
2023-03-13T10:41:44.455Z,55.40
2023-03-13T10:42:44.368Z,63.90
2023-03-13T10:43:44.370Z,69.30
2023-03-13T10:44:44.400Z,72.40
2023-03-13T10:45:44.359Z,141.90
2023-03-13T10:46:44.440Z,76.50
2023-03-13T10:47:44.354Z,167.70
2023-03-13T10:48:44.332Z,76.20
2023-03-13T10:49:44.368Z,333.00
2023-03-13T10:50:44.320Z,193.30
2023-03-13T10:51:44.293Z,276.80
2023-03-13T10:52:44.288Z,161.20
2023-03-13T10:53:44.275Z,316.70
2023-03-13T10:54:44.292Z,196.10
2023-03-13T10:55:44.242Z,527.70
2023-03-13T10:56:44.229Z,377.80
2023-03-13T10:57:44.240Z,522.20
2023-03-13T10:58:44.219Z,999.90
2023-03-13T10:59:44.252Z,398.70
2023-03-13T11:00:44.197Z,474.30
2023-03-13T11:01:44.193Z,999.90
2023-03-13T11:02:44.362Z,384.80
2023-03-13T11:03:44.221Z,268.90
2023-03-13T11:04:44.178Z,438.70
2023-03-13T11:05:44.146Z,999.90
2023-03-13T11:06:44.113Z,354.00
2023-03-13T11:07:44.106Z,329.30
2023-03-13T11:08:44.115Z,333.90
2023-03-13T11:09:44.192Z,659.30
2023-03-13T11:10:44.069Z,502.90
2023-03-13T11:11:44.111Z,276.70
2023-03-13T11:12:44.048Z,444.20
2023-03-13T11:13:44.031Z,341.00
2023-03-13T11:14:44.069Z,459.30
2023-03-13T11:15:44.005Z,110.40
2023-03-13T11:16:44.041Z,352.80
2023-03-13T11:17:44.010Z,359.40
2023-03-13T11:18:43.989Z,219.70
2023-03-13T11:19:44.029Z,213.00
2023-03-13T11:20:43.955Z,487.10
2023-03-13T11:21:43.981Z,396.20
2023-03-13T11:22:43.926Z,477.00
2023-03-13T11:23:43.952Z,300.90
2023-03-13T11:24:43.946Z,999.90
2023-03-13T11:25:43.916Z,855.90
2023-03-13T11:26:55.104Z,197.40
2023-03-13T11:27:44.901Z,883.10
2023-03-13T11:28:43.868Z,999.90
2023-03-13T11:29:43.938Z,999.90
2023-03-13T11:30:43.862Z,161.90
2023-03-13T11:31:43.923Z,215.30
2023-03-13T11:32:43.845Z,999.90
2023-03-13T11:33:43.819Z,999.90
2023-03-13T11:34:43.824Z,999.90
2023-03-13T11:35:43.892Z,999.90
2023-03-13T11:36:43.780Z,999.90
2023-03-13T11:37:43.783Z,999.90
2023-03-13T11:38:43.754Z,999.90
2023-03-13T11:39:43.759Z,106.50
2023-03-13T11:40:43.789Z,999.90
2023-03-13T11:41:43.786Z,999.90
2023-03-13T11:42:43.747Z,999.90
2023-03-13T11:43:43.688Z,999.90
2023-03-13T11:44:43.680Z,999.90
2023-03-13T11:45:43.749Z,999.90
2023-03-13T11:46:43.819Z,999.90
2023-03-13T11:47:43.663Z,999.90
2023-03-13T11:48:43.661Z,999.90
2023-03-13T11:49:43.632Z,999.90
2023-03-13T11:50:43.665Z,999.90
2023-03-13T11:51:43.651Z,999.90
2023-03-13T11:52:43.601Z,999.90
2023-03-13T11:53:43.580Z,999.90
2023-03-13T11:54:43.583Z,999.90
2023-03-13T11:55:43.629Z,999.90
2023-03-13T11:56:43.546Z,999.90
2023-03-13T11:57:43.538Z,999.90
2023-03-13T11:58:43.536Z,999.90
2023-03-13T11:59:43.515Z,999.90
2023-03-13T12:00:43.591Z,999.90
2023-03-13T12:01:45.522Z,999.90
2023-03-13T12:02:43.548Z,999.90
2023-03-13T12:03:43.567Z,999.90
2023-03-13T12:04:43.656Z,999.90
2023-03-13T12:05:43.501Z,999.90
2023-03-13T12:06:43.424Z,999.90
2023-03-13T12:07:43.433Z,999.90
2023-03-13T12:08:43.406Z,999.90
2023-03-13T12:09:43.423Z,999.90
2023-03-13T12:10:43.428Z,999.90
2023-03-13T12:11:43.373Z,999.90
2023-03-13T12:12:43.383Z,999.90
2023-03-13T12:13:43.365Z,999.90
2023-03-13T12:14:43.331Z,999.90
2023-03-13T12:15:43.362Z,999.90
2023-03-13T12:16:43.380Z,999.90
2023-03-13T12:17:43.523Z,999.90
2023-03-13T12:18:43.298Z,188.80
2023-03-13T12:19:43.299Z,999.90
2023-03-13T12:20:43.316Z,225.20
2023-03-13T12:21:43.344Z,999.90
2023-03-13T12:22:43.238Z,999.90
2023-03-13T12:23:43.294Z,93.10
2023-03-13T12:24:43.244Z,999.90
2023-03-13T12:25:43.304Z,857.30
2023-03-13T12:26:43.272Z,554.50
2023-03-13T12:27:43.214Z,999.90
2023-03-13T12:28:43.174Z,311.00
2023-03-13T12:29:43.193Z,900.50
2023-03-13T12:30:43.260Z,888.60
2023-03-13T12:31:43.156Z,842.20
2023-03-13T12:32:43.237Z,999.90
2023-03-13T12:33:43.159Z,849.40
2023-03-13T12:34:43.149Z,54.50